createdAt,value
2023-04-30T00:02:22.907Z,101732.92
2023-04-30T00:04:50.025Z,101733.30
2023-04-30T00:07:17.112Z,101737.36
2023-04-30T00:09:44.176Z,101738.42
2023-04-30T00:12:11.285Z,101733.00
2023-04-30T00:14:38.415Z,101728.63
2023-04-30T00:17:05.502Z,101725.82
2023-04-30T00:19:32.784Z,101720.39
2023-04-30T00:22:01.860Z,101718.30
2023-04-30T00:24:28.871Z,101720.75
2023-04-30T00:26:56.055Z,101717.78
2023-04-30T00:29:23.045Z,101712.36
2023-04-30T00:31:50.138Z,101701.52
2023-04-30T00:34:17.168Z,101694.67
2023-04-30T00:36:44.193Z,101692.05
2023-04-30T00:39:11.362Z,101682.94
2023-04-30T00:41:38.440Z,101679.98
2023-04-30T00:44:06.854Z,101673.33
2023-04-30T00:46:33.910Z,101679.84
2023-04-30T00:49:05.062Z,101669.69
2023-04-30T00:51:32.912Z,101676.20
2023-04-30T00:54:02.100Z,101671.84
2023-04-30T00:56:31.167Z,101677.46
2023-04-30T00:58:58.410Z,101689.75
2023-04-30T01:01:26.564Z,101680.29
2023-04-30T01:03:53.638Z,101678.73
2023-04-30T01:06:20.809Z,101668.73
2023-04-30T01:08:48.353Z,101662.11
2023-04-30T01:11:57.985Z,101661.41
2023-04-30T01:14:44.553Z,101662.45
2023-04-30T01:17:30.422Z,101662.43
2023-04-30T01:19:57.524Z,101668.56
2023-04-30T01:22:51.694Z,101667.67
2023-04-30T01:25:25.275Z,101676.44
2023-04-30T01:28:16.669Z,101672.77
2023-04-30T01:30:47.080Z,101683.29
2023-04-30T01:33:14.363Z,101677.48
2023-04-30T01:35:49.817Z,101676.96
2023-04-30T01:38:21.245Z,101679.23
2023-04-30T01:40:58.405Z,101679.95
2023-04-30T01:43:54.889Z,101675.39
2023-04-30T01:46:26.122Z,101678.75
2023-04-30T01:49:09.125Z,101673.16
2023-04-30T01:51:42.867Z,101667.91
2023-04-30T01:54:22.305Z,101661.27
2023-04-30T01:57:04.939Z,101662.67
2023-04-30T01:59:36.086Z,101649.73
2023-04-30T02:02:03.726Z,101652.21
2023-04-30T02:04:30.849Z,101648.05
2023-04-30T02:06:59.055Z,101638.27
2023-04-30T02:09:26.700Z,101640.20
2023-04-30T02:11:53.733Z,101632.02
2023-04-30T02:14:20.761Z,101629.08
2023-04-30T02:16:47.897Z,101627.19
2023-04-30T02:19:15.515Z,101624.95
2023-04-30T02:21:42.695Z,101627.61
2023-04-30T02:24:09.768Z,101629.58
2023-04-30T02:26:36.837Z,101632.77
2023-04-30T02:29:03.969Z,101630.00
2023-04-30T02:31:31.106Z,101625.83
2023-04-30T02:33:58.134Z,101621.80
2023-04-30T02:36:25.233Z,101627.62
2023-04-30T02:38:52.533Z,101619.23
2023-04-30T02:41:19.605Z,101614.86
2023-04-30T02:43:46.668Z,101619.94
2023-04-30T02:46:13.874Z,101619.78
2023-04-30T02:48:41.040Z,101620.13
2023-04-30T02:51:08.327Z,101620.66
2023-04-30T02:53:35.825Z,101613.66
2023-04-30T02:56:02.865Z,101611.21
2023-04-30T02:58:29.991Z,101647.32
2023-04-30T03:00:57.358Z,101666.60
2023-04-30T03:03:24.541Z,101683.77
2023-04-30T03:05:51.695Z,101694.64
2023-04-30T03:08:18.671Z,101692.73
2023-04-30T03:10:45.792Z,101693.96
2023-04-30T03:13:12.801Z,101693.24
2023-04-30T03:15:39.785Z,101695.17
2023-04-30T03:18:06.948Z,101698.14
2023-04-30T03:20:34.089Z,101701.11
2023-04-30T03:23:01.111Z,101694.62
2023-04-30T03:25:28.285Z,101694.78
2023-04-30T03:27:57.122Z,101695.46
2023-04-30T03:30:26.170Z,101691.09
2023-04-30T03:32:53.280Z,101690.04
2023-04-30T03:35:20.664Z,101691.08
2023-04-30T03:37:47.808Z,101694.23
2023-04-30T03:40:14.932Z,101698.27
2023-04-30T03:42:42.007Z,101700.73
2023-04-30T03:45:09.396Z,101690.55
2023-04-30T03:47:36.793Z,101689.69
2023-04-30T03:50:04.271Z,101683.73
2023-04-30T03:52:31.656Z,101678.13
2023-04-30T03:54:58.749Z,101670.61
2023-04-30T03:57:25.886Z,101668.85
2023-04-30T03:59:53.144Z,101667.98
2023-04-30T04:02:21.773Z,101672.35
2023-04-30T04:04:48.947Z,101671.82
2023-04-30T04:07:16.152Z,101675.33
2023-04-30T04:09:43.275Z,101678.30
2023-04-30T04:12:10.435Z,101677.27
2023-04-30T04:14:37.499Z,101677.78
2023-04-30T04:17:06.155Z,101679.87
2023-04-30T04:19:33.296Z,101686.53
2023-04-30T04:22:01.098Z,101689.69
2023-04-30T04:24:28.667Z,101690.17
2023-04-30T04:26:56.398Z,101689.64
2023-04-30T04:29:23.750Z,101690.33
2023-04-30T04:31:51.766Z,101689.09
2023-04-30T04:34:20.325Z,101689.41
2023-04-30T04:36:47.952Z,101698.32
2023-04-30T04:39:15.170Z,101694.47
2023-04-30T04:41:42.789Z,101700.60
2023-04-30T04:44:09.899Z,101704.95
2023-04-30T04:46:38.857Z,101712.46
2023-04-30T04:49:06.168Z,101717.34
2023-04-30T04:51:33.217Z,101719.95
2023-04-30T04:54:00.963Z,101722.03
2023-04-30T04:56:28.141Z,101730.27
2023-04-30T04:58:55.195Z,101724.66
2023-04-30T05:01:22.315Z,101725.00
2023-04-30T05:03:49.949Z,101731.30
2023-04-30T05:06:19.356Z,101739.35
2023-04-30T05:08:46.673Z,101740.20
2023-04-30T05:11:15.631Z,101734.94
2023-04-30T05:13:42.989Z,101741.42
2023-04-30T05:16:10.148Z,101743.55
2023-04-30T05:18:37.264Z,101744.09
2023-04-30T05:21:04.628Z,101743.75
2023-04-30T05:23:32.590Z,101743.94
2023-04-30T05:25:59.615Z,101737.98
2023-04-30T05:28:26.885Z,101740.09
2023-04-30T05:30:53.974Z,101739.20
2023-04-30T05:33:20.968Z,101741.81
2023-04-30T05:35:48.034Z,101739.17
2023-04-30T05:38:15.138Z,101744.06
2023-04-30T05:40:42.232Z,101747.91
2023-04-30T05:43:09.312Z,101751.27
2023-04-30T05:45:36.336Z,101753.55
2023-04-30T05:48:03.503Z,101750.40
2023-04-30T05:50:30.569Z,101751.64
2023-04-30T05:52:57.587Z,101748.48
2023-04-30T05:55:24.614Z,101754.45
2023-04-30T05:57:51.616Z,101749.20
2023-04-30T06:00:18.816Z,101748.83
2023-04-30T06:02:46.173Z,101745.84
2023-04-30T06:05:15.946Z,101747.24
2023-04-30T06:07:43.508Z,101744.95
2023-04-30T06:10:10.830Z,101741.42
2023-04-30T06:12:38.028Z,101737.17
2023-04-30T06:15:06.867Z,101735.95
2023-04-30T06:17:33.999Z,101732.09
2023-04-30T06:20:04.943Z,101729.80
2023-04-30T06:22:31.916Z,101728.20
2023-04-30T06:24:59.008Z,101723.23
2023-04-30T06:27:28.264Z,101734.75
2023-04-30T06:29:55.600Z,101736.98
2023-04-30T06:32:22.993Z,101747.61
2023-04-30T06:34:49.985Z,101749.31
2023-04-30T06:37:17.300Z,101755.57
2023-04-30T06:39:44.999Z,101750.98
2023-04-30T06:42:12.017Z,101752.52
2023-04-30T06:44:39.012Z,101752.11
2023-04-30T06:47:06.112Z,101758.91
2023-04-30T06:49:33.229Z,101751.16
2023-04-30T06:52:00.225Z,101747.65
2023-04-30T06:54:27.979Z,101750.98
2023-04-30T06:56:54.984Z,101753.95
2023-04-30T06:59:22.129Z,101756.23
2023-04-30T07:01:49.188Z,101763.26
2023-04-30T07:04:16.389Z,101758.88
2023-04-30T07:06:43.651Z,101751.33
2023-04-30T07:09:11.790Z,101749.38
2023-04-30T07:11:40.213Z,101750.76
2023-04-30T07:14:07.377Z,101748.30
2023-04-30T07:16:34.513Z,101750.17
2023-04-30T07:19:01.718Z,101755.42
2023-04-30T07:21:28.843Z,101760.49
2023-04-30T07:23:56.039Z,101760.81
2023-04-30T07:26:25.241Z,101757.82
2023-04-30T07:28:52.369Z,101756.92
2023-04-30T07:31:19.513Z,101761.07
2023-04-30T07:33:46.967Z,101765.05
2023-04-30T07:36:14.173Z,101758.70
2023-04-30T07:38:41.235Z,101762.50
2023-04-30T07:41:10.823Z,101767.73
2023-04-30T07:43:37.892Z,101771.55
2023-04-30T07:46:05.015Z,101776.59
2023-04-30T07:48:32.111Z,101773.44
2023-04-30T07:50:59.135Z,101767.78
2023-04-30T07:53:26.164Z,101753.20
2023-04-30T07:55:53.298Z,101747.56
2023-04-30T07:58:20.505Z,101737.98
2023-04-30T08:00:48.103Z,101741.38
2023-04-30T08:03:15.335Z,101755.30
2023-04-30T08:05:42.503Z,101756.96
2023-04-30T08:08:09.592Z,101753.42
2023-04-30T08:10:37.583Z,101748.91
2023-04-30T08:13:05.485Z,101749.94
2023-04-30T08:15:34.267Z,101745.90
2023-04-30T08:18:02.717Z,101732.81
2023-04-30T08:20:29.842Z,101719.66
2023-04-30T08:22:56.842Z,101705.94
2023-04-30T08:25:23.991Z,101711.10
2023-04-30T08:27:51.084Z,101712.24
2023-04-30T08:30:18.117Z,101711.01
2023-04-30T08:32:45.299Z,101708.54
2023-04-30T08:35:12.355Z,101699.70
2023-04-30T08:37:39.462Z,101702.16
2023-04-30T08:40:09.876Z,101695.30
2023-04-30T08:42:37.443Z,101679.52
2023-04-30T08:52:38.598Z,101740.66
2023-04-30T08:55:08.046Z,101787.32
2023-04-30T08:57:36.118Z,101758.73
2023-04-30T09:00:04.301Z,101747.69
2023-04-30T09:02:33.364Z,101736.95
2023-04-30T09:05:00.562Z,101731.23
2023-04-30T09:07:29.379Z,101727.29
2023-04-30T09:09:56.735Z,101718.48
2023-04-30T09:12:23.922Z,101717.55
2023-04-30T09:15:09.210Z,101708.02
2023-04-30T09:17:36.547Z,101706.89
2023-04-30T09:20:11.678Z,101708.38
2023-04-30T09:22:40.327Z,101709.90
2023-04-30T09:25:09.465Z,101706.20
2023-04-30T09:27:36.620Z,101702.67
2023-04-30T09:30:04.005Z,101697.94
2023-04-30T09:32:31.038Z,101694.64
2023-04-30T09:34:58.793Z,101689.42
2023-04-30T09:37:39.340Z,101679.95
2023-04-30T09:40:08.430Z,101664.52
2023-04-30T09:42:35.813Z,101652.05
2023-04-30T09:45:03.297Z,101643.13
2023-04-30T09:47:32.035Z,101637.86
2023-04-30T09:49:59.919Z,101635.89
2023-04-30T09:52:27.227Z,101634.02
2023-04-30T09:54:54.313Z,101639.50
2023-04-30T09:59:16.602Z,101633.96
2023-04-30T10:01:43.687Z,101688.92
2023-04-30T10:04:11.731Z,101670.87
2023-04-30T10:06:39.053Z,101665.61
2023-04-30T10:09:06.453Z,101656.67
2023-04-30T10:11:34.038Z,101657.17
2023-04-30T10:14:04.872Z,101654.52
2023-04-30T10:16:56.083Z,101649.95
2023-04-30T10:19:26.100Z,101646.45
2023-04-30T10:21:53.231Z,101641.67
2023-04-30T10:24:20.999Z,101638.81
2023-04-30T10:26:48.503Z,101634.11
2023-04-30T10:29:17.024Z,101630.44
2023-04-30T10:31:48.667Z,101629.74
2023-04-30T10:34:51.112Z,101617.31
2023-04-30T10:37:22.777Z,101617.34
2023-04-30T10:39:51.086Z,101608.02
2023-04-30T10:42:18.225Z,101598.55
2023-04-30T10:44:45.319Z,101597.83
2023-04-30T10:47:12.564Z,101591.52
2023-04-30T10:49:41.331Z,101584.27
2023-04-30T10:52:08.307Z,101583.96
2023-04-30T10:54:36.278Z,101582.12
2023-04-30T10:57:12.124Z,101583.16
2023-04-30T10:59:39.637Z,101581.60
2023-04-30T11:02:07.039Z,101578.40
2023-04-30T11:04:34.199Z,101574.02
2023-04-30T11:07:04.099Z,101574.85
2023-04-30T11:09:44.620Z,101572.01
2023-04-30T11:12:29.896Z,101570.80
2023-04-30T11:15:07.315Z,101568.19
2023-04-30T11:17:34.534Z,101557.53
2023-04-30T11:20:02.251Z,101552.27
2023-04-30T11:22:36.458Z,101546.96
2023-04-30T11:25:09.947Z,101540.21
2023-04-30T11:27:38.352Z,101545.20
2023-04-30T11:30:19.380Z,101550.08
2023-04-30T11:32:48.160Z,101556.90
2023-04-30T11:35:18.718Z,101562.59
2023-04-30T11:37:45.932Z,101560.60
2023-04-30T11:40:14.391Z,101560.23
2023-04-30T11:42:46.012Z,101552.73
2023-04-30T11:45:17.925Z,101551.20
2023-04-30T11:47:49.620Z,101542.58
2023-04-30T11:50:19.413Z,101533.20
2023-04-30T11:52:50.656Z,101535.06
2023-04-30T11:55:18.984Z,101530.84
2023-04-30T11:57:47.590Z,101526.95
2023-04-30T12:00:16.454Z,101524.06
2023-04-30T12:02:46.091Z,101514.16
2023-04-30T12:05:20.703Z,101497.59
2023-04-30T12:07:56.246Z,101482.92
2023-04-30T12:10:24.965Z,101473.00
2023-04-30T12:12:53.388Z,101468.06
2023-04-30T12:15:29.342Z,101462.27
2023-04-30T12:17:57.474Z,101458.62
2023-04-30T12:20:27.188Z,101458.77
2023-04-30T12:22:54.265Z,101464.31
2023-04-30T12:25:22.247Z,101468.62
2023-04-30T12:27:51.204Z,101466.48
2023-04-30T12:30:22.359Z,101465.29
2023-04-30T12:32:51.685Z,101466.52
2023-04-30T12:35:21.178Z,101463.05
2023-04-30T12:37:52.491Z,101460.05
2023-04-30T12:40:20.976Z,101459.16
2023-04-30T12:42:48.160Z,101454.23
2023-04-30T12:45:43.996Z,101455.04
2023-04-30T12:48:14.282Z,101459.68
2023-04-30T12:50:41.699Z,101454.17
2023-04-30T12:53:09.022Z,101444.98
2023-04-30T12:55:38.039Z,101433.15
2023-04-30T12:58:13.960Z,101425.39
2023-04-30T13:00:51.197Z,101419.69
2023-04-30T13:03:20.326Z,101417.40
2023-04-30T13:05:52.185Z,101417.40
2023-04-30T13:08:19.854Z,101465.79
2023-04-30T13:10:48.063Z,101493.98
2023-04-30T13:13:16.351Z,101493.35
2023-04-30T13:15:43.666Z,101490.17
2023-04-30T13:18:10.825Z,101485.62
2023-04-30T13:20:38.262Z,101474.36
2023-04-30T13:23:06.602Z,101471.79
2023-04-30T13:25:34.191Z,101477.35
2023-04-30T13:28:01.511Z,101488.20
2023-04-30T13:30:29.214Z,101507.60
2023-04-30T13:32:56.690Z,101511.41
2023-04-30T13:35:23.972Z,101510.27
2023-04-30T13:37:52.854Z,101506.52
2023-04-30T13:40:20.406Z,101501.50
2023-04-30T13:42:48.235Z,101492.02
2023-04-30T13:45:15.752Z,101477.38
2023-04-30T13:47:42.825Z,101469.36
2023-04-30T13:50:10.640Z,101459.92
2023-04-30T13:52:38.330Z,101452.89
2023-04-30T13:55:06.280Z,101448.65
2023-04-30T13:57:33.374Z,101442.97
2023-04-30T14:00:00.601Z,101432.37
2023-04-30T14:02:30.722Z,101425.65
2023-04-30T14:05:05.985Z,101418.93
2023-04-30T14:07:33.748Z,101415.89
2023-04-30T14:10:02.699Z,101415.70
2023-04-30T14:12:30.917Z,101411.84
2023-04-30T14:14:58.153Z,101409.36
2023-04-30T14:17:27.166Z,101411.77
2023-04-30T14:19:55.031Z,101411.11
2023-04-30T14:22:22.268Z,101406.94
2023-04-30T14:24:49.257Z,101398.02
2023-04-30T14:27:16.246Z,101389.98
2023-04-30T14:29:43.925Z,101386.34
2023-04-30T14:32:10.999Z,101382.31
2023-04-30T14:34:38.592Z,101380.24
2023-04-30T14:37:05.699Z,101369.59
2023-04-30T14:39:32.734Z,101364.87
2023-04-30T14:41:59.796Z,101363.66
2023-04-30T14:44:27.122Z,101350.33
2023-04-30T14:46:54.751Z,101339.97
2023-04-30T14:49:21.870Z,101331.36
2023-04-30T14:51:49.037Z,101326.09
2023-04-30T14:54:16.655Z,101320.71
2023-04-30T14:56:44.624Z,101314.64
2023-04-30T14:59:12.164Z,101306.64
2023-04-30T15:01:39.265Z,101300.61
2023-04-30T15:04:07.296Z,101289.98
2023-04-30T15:06:34.379Z,101284.63
2023-04-30T15:09:01.924Z,101273.67
2023-04-30T15:11:28.971Z,101267.99
2023-04-30T15:13:55.968Z,101265.05
2023-04-30T15:16:24.010Z,101262.48
2023-04-30T15:18:51.340Z,101253.93
2023-04-30T15:21:18.773Z,101250.27
2023-04-30T15:23:46.192Z,101247.16
2023-04-30T15:26:13.286Z,101248.05
2023-04-30T15:28:40.320Z,101253.14
2023-04-30T15:31:07.513Z,101252.22
2023-04-30T15:33:39.701Z,101249.20
2023-04-30T15:36:06.877Z,101245.09
2023-04-30T15:38:34.677Z,101241.85
2023-04-30T15:41:01.753Z,101238.93
2023-04-30T15:43:30.238Z,101237.72
2023-04-30T15:45:57.379Z,101234.95
2023-04-30T15:48:25.760Z,101237.29
2023-04-30T15:50:53.023Z,101239.91
2023-04-30T15:53:20.084Z,101237.06
2023-04-30T15:55:48.958Z,101236.86
2023-04-30T15:58:16.438Z,101237.77
2023-04-30T16:00:43.760Z,101235.70
2023-04-30T16:03:12.228Z,101234.02
2023-04-30T16:05:40.708Z,101236.33
2023-04-30T16:08:08.386Z,101241.94
2023-04-30T16:10:36.200Z,101236.89
2023-04-30T16:13:03.334Z,101242.21
2023-04-30T16:15:30.578Z,101236.34
2023-04-30T16:17:57.773Z,101232.27
2023-04-30T16:20:25.042Z,101225.73
2023-04-30T16:22:52.881Z,101222.48
2023-04-30T16:25:20.999Z,101228.66
2023-04-30T16:27:48.259Z,101230.08
2023-04-30T16:30:15.608Z,101232.38
2023-04-30T16:32:42.616Z,101235.39
2023-04-30T16:35:09.944Z,101236.30
2023-04-30T16:37:37.077Z,101234.92
2023-04-30T16:40:06.535Z,101239.11
2023-04-30T16:42:34.213Z,101239.25
2023-04-30T16:45:01.801Z,101241.52
2023-04-30T16:47:28.898Z,101242.59
2023-04-30T16:49:58.634Z,101241.05
2023-04-30T16:52:25.963Z,101240.02
2023-04-30T16:54:53.335Z,101239.17
2023-04-30T16:57:20.416Z,101247.41
2023-04-30T16:59:47.623Z,101252.66
2023-04-30T17:02:14.790Z,101257.08
2023-04-30T17:04:42.268Z,101257.48
2023-04-30T17:07:09.301Z,101258.39
2023-04-30T17:09:37.968Z,101256.85
2023-04-30T17:12:05.732Z,101260.77
2023-04-30T17:14:32.799Z,101258.54
2023-04-30T17:16:59.937Z,101257.16
2023-04-30T17:19:26.950Z,101261.03
2023-04-30T17:21:54.066Z,101263.65
2023-04-30T17:24:21.306Z,101260.82
2023-04-30T17:26:49.393Z,101263.28
2023-04-30T17:29:16.843Z,101263.80
2023-04-30T17:31:44.432Z,101263.82
2023-04-30T17:34:11.748Z,101265.60
2023-04-30T17:36:39.236Z,101268.24
2023-04-30T17:39:06.243Z,101265.25
2023-04-30T17:41:33.367Z,101264.42
2023-04-30T17:44:00.836Z,101263.73
2023-04-30T17:46:28.322Z,101260.10
2023-04-30T17:48:55.429Z,101261.54
2023-04-30T17:51:23.153Z,101256.81
2023-04-30T17:53:50.164Z,101255.23
2023-04-30T17:56:17.325Z,101252.66
2023-04-30T17:58:46.082Z,101252.17
2023-04-30T18:01:13.604Z,101249.91
2023-04-30T18:03:40.852Z,101242.42
2023-04-30T18:06:08.158Z,101244.24
2023-04-30T18:08:35.608Z,101244.44
2023-04-30T18:11:05.336Z,101243.42
2023-04-30T18:13:32.977Z,101242.77
2023-04-30T18:16:00.118Z,101240.92
2023-04-30T18:18:27.192Z,101239.61
2023-04-30T18:20:54.288Z,101233.03
2023-04-30T18:23:22.429Z,101232.71
2023-04-30T18:25:49.700Z,101237.98
2023-04-30T18:28:16.733Z,101244.52
2023-04-30T18:30:44.325Z,101239.81
2023-04-30T18:33:11.699Z,101240.21
2023-04-30T18:35:38.845Z,101240.25
2023-04-30T18:38:08.294Z,101245.00
2023-04-30T18:40:35.503Z,101246.55
2023-04-30T18:43:02.672Z,101251.14
2023-04-30T18:45:30.472Z,101247.45
2023-04-30T18:47:57.783Z,101246.09
2023-04-30T18:50:25.907Z,101245.63
2023-04-30T18:52:54.450Z,101243.91
2023-04-30T18:55:23.202Z,101240.78
2023-04-30T18:57:50.985Z,101240.42
2023-04-30T19:00:18.333Z,101241.30
2023-04-30T19:02:45.927Z,101236.95
2023-04-30T19:05:14.625Z,101236.11
2023-04-30T19:07:42.011Z,101233.85
2023-04-30T19:10:10.894Z,101229.81
2023-04-30T19:12:38.581Z,101225.09
2023-04-30T19:15:08.489Z,101224.23
2023-04-30T19:17:35.870Z,101224.41
2023-04-30T19:20:03.149Z,101222.46
2023-04-30T19:22:30.190Z,101225.61
2023-04-30T19:24:57.176Z,101223.50
2023-04-30T19:27:24.191Z,101224.90
2023-04-30T19:29:53.006Z,101220.89
2023-04-30T19:32:21.077Z,101218.63
2023-04-30T19:34:48.278Z,101217.06
2023-04-30T19:37:15.318Z,101220.73
2023-04-30T19:39:42.566Z,101224.60
2023-04-30T19:42:09.603Z,101228.17
2023-04-30T19:44:36.766Z,101223.21
2023-04-30T19:47:05.054Z,101225.38
2023-04-30T19:49:33.748Z,101221.77
2023-04-30T19:52:01.604Z,101226.54
2023-04-30T19:54:28.614Z,101232.16
2023-04-30T19:56:55.671Z,101240.25
2023-04-30T19:59:22.720Z,101242.70
2023-04-30T20:01:49.792Z,101243.07
2023-04-30T20:04:16.902Z,101239.59
2023-04-30T20:06:44.957Z,101236.09
2023-04-30T20:09:12.151Z,101238.21
2023-04-30T20:11:39.274Z,101241.73
2023-04-30T20:14:06.471Z,101243.48
2023-04-30T20:16:33.624Z,101246.81
2023-04-30T20:19:00.751Z,101252.41
2023-04-30T20:21:29.216Z,101254.16
2023-04-30T20:23:56.280Z,101257.84
2023-04-30T20:26:25.852Z,101256.44
2023-04-30T20:28:53.669Z,101256.09
2023-04-30T20:31:21.442Z,101257.84
2023-04-30T20:33:48.464Z,101261.36
2023-04-30T20:36:16.828Z,101261.35
2023-04-30T20:38:44.081Z,101269.41
2023-04-30T20:41:11.253Z,101272.20
2023-04-30T20:43:38.402Z,101276.23
2023-04-30T20:46:05.592Z,101280.23
2023-04-30T20:48:32.653Z,101280.06
2023-04-30T20:50:59.734Z,101274.82
2023-04-30T20:53:26.788Z,101274.14
2023-04-30T20:55:59.906Z,101281.69
2023-04-30T20:58:29.901Z,101286.80
2023-04-30T21:00:57.021Z,101287.88
2023-04-30T21:03:24.534Z,101288.58
2023-04-30T21:06:17.850Z,101287.35
2023-04-30T21:08:45.127Z,101288.95
2023-04-30T21:11:14.338Z,101287.39
2023-04-30T21:13:42.052Z,101287.57
2023-04-30T21:16:09.165Z,101289.84
2023-04-30T21:18:36.785Z,101291.25
2023-04-30T21:21:07.833Z,101292.29
2023-04-30T21:23:35.461Z,101291.93
2023-04-30T21:26:02.597Z,101297.69
2023-04-30T21:28:29.596Z,101298.56
2023-04-30T21:30:56.871Z,101298.56
2023-04-30T21:33:23.943Z,101296.29
2023-04-30T21:35:50.927Z,101295.95
2023-04-30T21:38:17.889Z,101291.25
2023-04-30T21:40:44.973Z,101287.23
2023-04-30T21:43:12.198Z,101287.04
2023-04-30T21:45:41.488Z,101286.70
2023-04-30T21:48:10.420Z,101285.30
2023-04-30T21:50:38.815Z,101284.08
2023-04-30T21:53:05.924Z,101280.58
2023-04-30T21:55:32.962Z,101278.46
2023-04-30T21:58:00.008Z,101278.12
2023-04-30T22:00:28.330Z,101280.91
2023-04-30T22:02:55.939Z,101276.21
2023-04-30T22:05:23.028Z,101273.59
2023-04-30T22:07:50.104Z,101270.79
2023-04-30T22:10:17.224Z,101268.69
2023-04-30T22:12:47.357Z,101271.84
2023-04-30T22:17:17.125Z,101284.07
2023-04-30T22:19:44.117Z,101321.59
2023-04-30T22:22:11.901Z,101309.67
2023-04-30T22:24:38.980Z,101303.35
2023-04-30T22:27:06.299Z,101303.71
2023-04-30T22:29:33.742Z,101303.17
2023-04-30T22:32:01.801Z,101304.77
2023-04-30T22:34:29.091Z,101304.61
2023-04-30T22:36:56.753Z,101297.44
2023-04-30T22:39:23.794Z,101294.83
2023-04-30T22:41:50.878Z,101295.18
2023-04-30T22:44:17.849Z,101294.84
2023-04-30T22:46:45.019Z,101289.81
2023-04-30T22:49:27.374Z,101295.21
2023-04-30T22:51:57.635Z,101300.80
2023-04-30T22:54:24.672Z,101297.48
2023-04-30T22:56:51.699Z,101292.44
2023-04-30T22:59:18.741Z,101295.91
2023-04-30T23:01:45.793Z,101296.13
2023-04-30T23:04:13.887Z,101299.47
2023-04-30T23:06:43.046Z,101294.05
2023-04-30T23:09:10.378Z,101292.67
2023-04-30T23:11:37.437Z,101292.86
2023-04-30T23:14:04.881Z,101286.41
2023-04-30T23:16:32.086Z,101287.80
2023-04-30T23:18:59.237Z,101290.26
2023-04-30T23:21:26.932Z,101295.52
2023-04-30T23:23:53.967Z,101303.92
2023-04-30T23:26:21.437Z,101299.19
2023-04-30T23:28:48.613Z,101308.64
2023-04-30T23:31:15.690Z,101313.71
2023-04-30T23:33:42.714Z,101315.46
2023-04-30T23:36:09.773Z,101318.08
2023-04-30T23:38:37.120Z,101320.70
2023-04-30T23:41:04.263Z,101321.91
2023-04-30T23:43:32.920Z,101326.96
2023-04-30T23:46:00.390Z,101328.36
2023-04-30T23:48:27.569Z,101325.72
2023-04-30T23:51:05.059Z,101325.55
2023-04-30T23:53:32.513Z,101328.37
2023-04-30T23:55:59.710Z,101328.89
2023-04-30T23:58:27.180Z,101331.72
